Time;durP1;ratioP1;P1;durP2;ratioP2;P2;SDS_P1;SDS_P2;PMS_P1;PMS_P2;Temp;Humidity;BMP_temperature;BMP_pressure;BME280_temperature;BME280_humidity;BME280_pressure;Samples;Min_cycle;Max_cycle;Signal;HPM_P1;HPM_P2
2023/04/07 00:00:54;;;;;;;;;;;;;;;5.51;100.00;96699.75;5029323;28;19966;-69
2023/04/07 00:03:20;;;;;;;;;;;;;;;5.39;100.00;96699.69;5021718;28;19970;-68
2023/04/07 00:05:45;;;;;;;;;;;;;;;5.22;100.00;96684.34;5023971;28;19924;-68
2023/04/07 00:08:11;;;;;;;;;;;;;;;5.02;100.00;96690.56;5021014;28;19921;-68
2023/04/07 00:10:36;;;;;;;;;;;;;;;4.88;100.00;96682.66;5035119;28;19916;-69
2023/04/07 00:13:03;;;;;;;;;;;;;;;4.79;100.00;96686.25;5031553;28;19921;-69
2023/04/07 00:15:28;;;;;;;;;;;;;;;4.78;100.00;96686.56;5040865;28;19905;-71
2023/04/07 00:17:53;;;;;;;;;;;;;;;4.77;100.00;96679.53;5044026;28;19905;-68
2023/04/07 00:20:19;;;;;;;;;;;;;;;4.75;100.00;96677.19;5030876;28;19921;-68
2023/04/07 00:22:45;;;;;;;;;;;;;;;4.78;100.00;96671.06;5006876;28;19925;-69
2023/04/07 00:25:10;;;;;;;;;;;;;;;4.83;100.00;96669.31;4999222;28;19927;-69
2023/04/07 00:27:36;;;;;;;;;;;;;;;4.90;100.00;96664.94;5004891;28;20341;-70
2023/04/07 00:30:01;;;;;;;;;;;;;;;4.84;100.00;96665.44;5006276;28;20326;-69
2023/04/07 00:32:27;;;;;;;;;;;;;;;4.79;100.00;96661.03;5015311;28;19917;-70
2023/04/07 00:34:52;;;;;;;;;;;;;;;4.79;100.00;96661.81;5020972;28;19963;-69
2023/04/07 00:37:18;;;;;;;;;;;;;;;4.85;100.00;96667.84;5019906;28;20425;-71
2023/04/07 00:39:43;;;;;;;;;;;;;;;4.92;100.00;96659.97;5026940;28;19948;-70
2023/04/07 00:42:09;;;;;;;;;;;;;;;4.86;100.00;96655.88;5018960;28;19921;-69
2023/04/07 00:44:34;;;;;;;;;;;;;;;4.85;100.00;96650.78;5020336;28;20333;-71
2023/04/07 00:47:00;;;;;;;;;;;;;;;4.80;100.00;96640.91;5021580;28;19965;-70
2023/04/07 00:49:27;;;;;;;;;;;;;;;4.84;100.00;96649.19;5018330;28;19971;-68
2023/04/07 00:51:53;;;;;;;;;;;;;;;4.83;100.00;96640.25;5029983;28;20425;-69
2023/04/07 00:54:18;;;;;;;;;;;;;;;4.81;100.00;96631.66;5000676;28;19967;-70
2023/04/07 00:56:43;;;;;;;;;;;;;;;4.82;100.00;96635.16;5023121;28;19971;-69
2023/04/07 00:59:09;;;;;;;;;;;;;;;4.82;100.00;96637.84;5018883;28;19917;-70
2023/04/07 01:01:47;;;;;;;;;;;;;;;4.81;100.00;96636.25;5022207;28;19921;-69
2023/04/07 01:04:27;;;;;;;;;;;;;;;4.79;100.00;96631.97;5001187;28;20515;-68
2023/04/07 01:06:55;;;;;;;;;;;;;;;4.80;100.00;96621.91;5024236;28;19964;-70
2023/04/07 01:09:24;;;;;;;;;;;;;;;4.90;100.00;96629.66;5019107;28;19925;-69
2023/04/07 01:12:04;;;;;;;;;;;;;;;5.17;100.00;96627.53;5018124;28;19963;-68
2023/04/07 01:14:32;;;;;;;;;;;;;;;5.48;100.00;96620.84;4985886;28;20121;-70
2023/04/07 01:16:59;;;;;;;;;;;;;;;5.67;100.00;96623.03;5003067;28;19928;-68
2023/04/07 01:19:46;;;;;;;;;;;;;;;5.44;100.00;96622.63;4993777;28;19964;-70
2023/04/07 01:22:12;;;;;;;;;;;;;;;5.27;100.00;96618.16;4997479;28;20032;-68
2023/04/07 01:24:44;;;;;;;;;;;;;;;5.13;100.00;96611.09;4984723;28;19922;-70
2023/04/07 01:27:17;;;;;;;;;;;;;;;5.15;100.00;96599.91;4997683;28;19972;-68
2023/04/07 01:29:47;;;;;;;;;;;;;;;5.11;100.00;96593.53;5003087;28;19921;-70
2023/04/07 01:32:13;;;;;;;;;;;;;;;4.92;100.00;96592.13;4996208;28;19961;-68
2023/04/07 01:34:39;;;;;;;;;;;;;;;4.85;100.00;96581.00;5002294;28;19925;-70
2023/04/07 01:37:05;;;;;;;;;;;;;;;4.85;100.00;96591.06;5009481;28;19917;-69
2023/04/07 01:39:31;;;;;;;;;;;;;;;4.89;100.00;96586.56;5030421;28;19917;-70
2023/04/07 01:41:56;;;;;;;;;;;;;;;4.96;100.00;96581.38;5026143;28;19921;-70
2023/04/07 01:44:23;;;;;;;;;;;;;;;5.06;100.00;96588.31;5016353;28;20077;-69
2023/04/07 01:46:52;;;;;;;;;;;;;;;5.05;100.00;96575.88;5003623;28;19924;-70
2023/04/07 01:49:18;;;;;;;;;;;;;;;5.03;100.00;96570.78;5017250;28;19917;-70
2023/04/07 01:51:44;;;;;;;;;;;;;;;5.04;100.00;96563.44;5021535;28;20012;-68
2023/04/07 01:54:09;;;;;;;;;;;;;;;5.01;100.00;96566.84;5002143;28;20011;-69
2023/04/07 01:56:35;;;;;;;;;;;;;;;5.00;100.00;96568.72;5023283;28;19925;-69
2023/04/07 01:59:00;;;;;;;;;;;;;;;4.98;100.00;96562.84;5024415;28;19921;-70
2023/04/07 02:01:25;;;;;;;;;;;;;;;5.02;100.00;96571.13;5021204;28;20337;-69
2023/04/07 02:04:06;;;;;;;;;;;;;;;5.05;100.00;96567.75;5023121;28;19928;-69
2023/04/07 02:06:34;;;;;;;;;;;;;;;5.02;100.00;96558.34;5016913;28;19917;-68
2023/04/07 02:09:03;;;;;;;;;;;;;;;5.10;100.00;96559.41;5030804;28;20533;-69
2023/04/07 02:11:31;;;;;;;;;;;;;;;5.07;100.00;96562.78;5040468;28;19924;-70
2023/04/07 02:13:57;;;;;;;;;;;;;;;5.13;100.00;96556.81;5017727;28;19918;-69
2023/04/07 02:16:23;;;;;;;;;;;;;;;5.20;100.00;96555.47;5000691;28;22296;-68
2023/04/07 02:18:49;;;;;;;;;;;;;;;5.23;100.00;96552.88;5005916;28;20294;-68
2023/04/07 02:21:14;;;;;;;;;;;;;;;5.31;100.00;96553.91;5000357;28;19932;-68
2023/04/07 02:23:40;;;;;;;;;;;;;;;5.24;100.00;96545.50;5005133;28;20413;-68
2023/04/07 02:26:05;;;;;;;;;;;;;;;5.11;100.00;96547.41;5000527;28;19927;-69
2023/04/07 02:28:30;;;;;;;;;;;;;;;5.01;100.00;96540.47;5005773;28;20325;-69
2023/04/07 02:30:56;;;;;;;;;;;;;;;4.89;100.00;96529.56;4988339;28;19925;-70
2023/04/07 02:33:21;;;;;;;;;;;;;;;4.91;100.00;96538.16;5001975;28;19975;-70
2023/04/07 02:35:46;;;;;;;;;;;;;;;5.02;100.00;96533.91;5005123;28;20385;-69
2023/04/07 02:38:12;;;;;;;;;;;;;;;5.04;100.00;96531.66;5007869;28;19917;-70
2023/04/07 02:40:37;;;;;;;;;;;;;;;5.03;100.00;96519.22;5024869;28;19917;-69
2023/04/07 02:43:04;;;;;;;;;;;;;;;5.00;100.00;96522.59;5023703;28;19978;-69
2023/04/07 02:45:29;;;;;;;;;;;;;;;5.04;100.00;96525.44;5007453;28;19917;-70
2023/04/07 02:47:55;;;;;;;;;;;;;;;5.00;100.00;96514.44;5048776;28;19953;-69
2023/04/07 02:50:20;;;;;;;;;;;;;;;4.89;100.00;96508.63;5041128;28;19920;-68
2023/04/07 02:52:45;;;;;;;;;;;;;;;4.81;100.00;96503.28;5043731;28;19943;-69
2023/04/07 02:55:11;;;;;;;;;;;;;;;4.89;100.00;96510.56;5036153;28;19917;-70
2023/04/07 02:57:36;;;;;;;;;;;;;;;4.97;100.00;96504.28;5027272;28;20011;-70
2023/04/07 03:00:03;;;;;;;;;;;;;;;5.17;100.00;96495.28;5034115;28;19928;-70
2023/04/07 03:02:29;;;;;;;;;;;;;;;5.35;100.00;96495.88;5022190;28;20322;-69
2023/04/07 03:04:54;;;;;;;;;;;;;;;5.46;100.00;96495.44;5020465;28;19924;-69
2023/04/07 03:07:20;;;;;;;;;;;;;;;5.58;100.00;96490.00;5017016;28;20298;-69
2023/04/07 03:09:45;;;;;;;;;;;;;;;5.54;100.00;96487.16;5022758;28;19924;-69
2023/04/07 03:12:10;;;;;;;;;;;;;;;5.48;100.00;96488.53;5006176;28;19929;-69
2023/04/07 03:14:36;;;;;;;;;;;;;;;5.45;100.00;96488.41;5024215;28;20468;-69
2023/04/07 03:17:02;;;;;;;;;;;;;;;5.46;100.00;96482.63;5024913;28;19924;-68
2023/04/07 03:19:27;;;;;;;;;;;;;;;5.49;100.00;96486.59;5020333;28;19917;-70
2023/04/07 03:21:52;;;;;;;;;;;;;;;5.48;100.00;96482.31;5024311;28;20400;-68
2023/04/07 03:24:18;;;;;;;;;;;;;;;5.42;100.00;96472.78;5018817;28;19991;-68
2023/04/07 03:26:43;;;;;;;;;;;;;;;5.34;100.00;96475.25;5022840;28;20317;-69
2023/04/07 03:29:08;;;;;;;;;;;;;;;5.33;100.00;96473.69;5019244;28;19931;-69
2023/04/07 03:31:34;;;;;;;;;;;;;;;5.30;100.00;96465.44;5022696;28;19918;-69
2023/04/07 03:33:59;;;;;;;;;;;;;;;5.24;100.00;96467.56;5023713;28;19972;-69
2023/04/07 03:36:26;;;;;;;;;;;;;;;5.14;100.00;96466.06;5019073;28;19928;-69
2023/04/07 03:38:52;;;;;;;;;;;;;;;5.07;100.00;96465.84;5024110;28;19917;-69
2023/04/07 03:41:17;;;;;;;;;;;;;;;4.88;100.00;96460.13;5018009;28;20309;-69
2023/04/07 03:43:42;;;;;;;;;;;;;;;4.66;100.00;96464.03;5023960;28;19917;-69
2023/04/07 03:46:07;;;;;;;;;;;;;;;4.63;100.00;96459.25;5017836;28;20402;-69
2023/04/07 03:48:33;;;;;;;;;;;;;;;4.66;100.00;96462.09;5023328;28;19924;-69
2023/04/07 03:50:58;;;;;;;;;;;;;;;4.68;100.00;96454.44;5022733;28;19939;-70
2023/04/07 03:53:23;;;;;;;;;;;;;;;4.53;100.00;96452.34;5017855;28;20359;-69
2023/04/07 03:55:49;;;;;;;;;;;;;;;4.47;100.00;96451.75;5023931;28;19921;-69
2023/04/07 03:58:14;;;;;;;;;;;;;;;4.35;100.00;96449.78;5018432;28;19917;-68
2023/04/07 04:00:40;;;;;;;;;;;;;;;4.29;100.00;96437.56;5023342;28;19944;-69
2023/04/07 04:03:05;;;;;;;;;;;;;;;4.25;100.00;96435.81;5018786;28;19921;-70
2023/04/07 04:05:30;;;;;;;;;;;;;;;4.28;100.00;96440.59;5022866;28;19917;-69
2023/04/07 04:07:56;;;;;;;;;;;;;;;4.29;100.00;96437.56;5023781;28;19917;-70
2023/04/07 04:10:21;;;;;;;;;;;;;;;4.29;100.00;96423.22;5017661;28;20456;-69
2023/04/07 04:12:47;;;;;;;;;;;;;;;4.30;100.00;96419.34;5015550;28;19917;-69
2023/04/07 04:15:13;;;;;;;;;;;;;;;4.30;100.00;96428.28;5037726;28;19917;-69
2023/04/07 04:17:40;;;;;;;;;;;;;;;4.22;100.00;96426.44;5030343;28;20378;-69
2023/04/07 04:20:06;;;;;;;;;;;;;;;4.12;100.00;96422.19;5023489;28;19917;-67
2023/04/07 04:22:31;;;;;;;;;;;;;;;4.06;100.00;96420.03;5004476;28;19982;-70
2023/04/07 04:24:58;;;;;;;;;;;;;;;4.00;100.00;96427.59;5023533;28;19917;-69
2023/04/07 04:27:23;;;;;;;;;;;;;;;3.98;100.00;96419.78;5032614;28;20386;-67
2023/04/07 04:29:49;;;;;;;;;;;;;;;3.96;100.00;96426.63;5022883;28;19924;-70
2023/04/07 04:32:16;;;;;;;;;;;;;;;3.98;100.00;96427.09;5018365;28;19917;-69
2023/04/07 04:34:42;;;;;;;;;;;;;;;3.99;100.00;96432.19;5023224;28;20040;-68
2023/04/07 04:37:07;;;;;;;;;;;;;;;4.01;100.00;96435.34;5002069;28;20422;-70
2023/04/07 04:39:33;;;;;;;;;;;;;;;4.04;100.00;96436.63;5020543;28;19947;-68
2023/04/07 04:41:58;;;;;;;;;;;;;;;4.13;100.00;96442.78;5022775;28;19928;-70
2023/04/07 04:44:23;;;;;;;;;;;;;;;4.22;100.00;96440.00;5008411;28;20251;-70
2023/04/07 04:46:49;;;;;;;;;;;;;;;4.23;100.00;96441.56;5006557;28;19918;-69
2023/04/07 04:49:15;;;;;;;;;;;;;;;4.16;100.00;96439.41;4998119;28;19917;-70
2023/04/07 04:51:40;;;;;;;;;;;;;;;4.13;100.00;96444.69;5012760;28;19921;-70
2023/04/07 04:54:06;;;;;;;;;;;;;;;4.10;100.00;96450.78;5016897;28;20278;-70
2023/04/07 04:56:31;;;;;;;;;;;;;;;4.10;100.00;96440.72;5022951;28;20396;-68
2023/04/07 04:58:57;;;;;;;;;;;;;;;4.15;100.00;96440.53;5024080;28;19921;-69
2023/04/07 05:01:22;;;;;;;;;;;;;;;4.19;100.00;96437.94;5019684;28;20238;-69
2023/04/07 05:03:47;;;;;;;;;;;;;;;4.12;100.00;96437.69;5024065;28;19921;-70
2023/04/07 05:06:13;;;;;;;;;;;;;;;4.15;100.00;96437.03;5019767;28;20100;-68
2023/04/07 05:08:38;;;;;;;;;;;;;;;4.18;100.00;96434.44;5023975;28;19949;-69
2023/04/07 05:11:03;;;;;;;;;;;;;;;4.16;100.00;96433.19;5018740;28;19917;-69
2023/04/07 05:13:29;;;;;;;;;;;;;;;4.13;100.00;96428.44;5018669;28;19918;-68
2023/04/07 05:15:55;;;;;;;;;;;;;;;4.13;100.00;96425.72;5006480;28;20008;-70
2023/04/07 05:18:22;;;;;;;;;;;;;;;4.17;100.00;96429.34;5034639;28;20432;-69
2023/04/07 05:20:48;;;;;;;;;;;;;;;4.21;100.00;96430.28;5043870;28;19906;-69
2023/04/07 05:23:14;;;;;;;;;;;;;;;4.31;100.00;96432.59;5043823;28;19916;-71
2023/04/07 05:25:39;;;;;;;;;;;;;;;4.43;100.00;96426.44;5046753;28;19960;-70
2023/04/07 05:28:05;;;;;;;;;;;;;;;4.57;100.00;96423.41;5026300;28;19981;-71
2023/04/07 05:30:30;;;;;;;;;;;;;;;4.74;100.00;96417.03;5022182;28;20416;-69
2023/04/07 05:32:55;;;;;;;;;;;;;;;4.92;100.00;96417.63;5029722;28;20015;-68
2023/04/07 05:35:21;;;;;;;;;;;;;;;5.00;100.00;96413.22;5023606;28;19979;-71
2023/04/07 05:37:46;;;;;;;;;;;;;;;4.76;98.87;96412.06;5029006;28;20366;-70
2023/04/07 05:40:11;;;;;;;;;;;;;;;4.54;100.00;96415.97;5023538;28;19917;-68
2023/04/07 05:42:37;;;;;;;;;;;;;;;4.42;100.00;96419.41;5026200;28;19928;-69
2023/04/07 05:45:02;;;;;;;;;;;;;;;4.49;100.00;96416.94;5009482;28;20492;-71
2023/04/07 05:47:28;;;;;;;;;;;;;;;4.61;100.00;96413.50;5026306;28;20270;-70
2023/04/07 05:49:53;;;;;;;;;;;;;;;4.65;100.00;96413.63;5028791;28;19932;-69
2023/04/07 05:52:18;;;;;;;;;;;;;;;4.70;100.00;96416.09;5023428;28;20390;-69
2023/04/07 05:54:44;;;;;;;;;;;;;;;4.76;100.00;96414.78;5030766;28;19918;-69
2023/04/07 05:57:09;;;;;;;;;;;;;;;4.74;100.00;96414.31;5032270;28;20422;-70
2023/04/07 05:59:35;;;;;;;;;;;;;;;4.73;100.00;96416.22;5034381;28;19928;-70
2023/04/07 06:02:01;;;;;;;;;;;;;;;4.83;99.89;96411.53;5033046;28;19929;-69
2023/04/07 06:04:27;;;;;;;;;;;;;;;4.93;98.78;96416.50;5010019;28;19921;-68
2023/04/07 06:06:54;;;;;;;;;;;;;;;5.00;96.43;96415.94;5030091;28;19925;-69
2023/04/07 06:09:19;;;;;;;;;;;;;;;5.08;97.13;96410.41;5034066;28;19917;-70
2023/04/07 06:11:46;;;;;;;;;;;;;;;5.15;97.06;96418.00;5036794;28;19917;-70
2023/04/07 06:14:11;;;;;;;;;;;;;;;5.16;96.44;96414.94;5026999;28;20415;-69
2023/04/07 06:16:36;;;;;;;;;;;;;;;5.17;96.38;96413.03;5030774;28;19963;-69
2023/04/07 06:19:02;;;;;;;;;;;;;;;5.39;96.38;96419.16;5030531;28;20393;-71
2023/04/07 06:21:27;;;;;;;;;;;;;;;5.38;93.75;96417.56;5024720;28;20367;-71
2023/04/07 06:23:52;;;;;;;;;;;;;;;5.50;92.88;96412.13;5011156;28;19925;-69
2023/04/07 06:26:17;;;;;;;;;;;;;;;5.55;92.42;96409.97;5017244;28;19925;-69
2023/04/07 06:28:43;;;;;;;;;;;;;;;5.57;91.60;96411.56;5036986;28;19917;-70
2023/04/07 06:31:08;;;;;;;;;;;;;;;5.67;91.80;96411.09;5034059;28;19917;-68
2023/04/07 06:33:33;;;;;;;;;;;;;;;5.81;90.79;96414.22;5030770;28;19921;-69
2023/04/07 06:35:59;;;;;;;;;;;;;;;6.07;90.21;96418.53;5026715;28;20259;-70
2023/04/07 06:38:24;;;;;;;;;;;;;;;6.17;88.57;96414.53;5021486;28;19917;-70
2023/04/07 06:40:50;;;;;;;;;;;;;;;6.65;86.86;96410.81;5023449;28;19917;-70
2023/04/07 06:43:15;;;;;;;;;;;;;;;6.99;84.69;96410.53;5020008;28;19924;-68
2023/04/07 06:45:40;;;;;;;;;;;;;;;7.44;80.59;96412.03;5019051;28;20004;-68
2023/04/07 06:48:06;;;;;;;;;;;;;;;8.28;81.56;96408.00;5019604;28;20329;-69
2023/04/07 06:50:31;;;;;;;;;;;;;;;7.44;78.55;96414.75;5023280;28;19917;-67
2023/04/07 06:52:56;;;;;;;;;;;;;;;8.48;77.48;96419.78;5024606;28;20012;-69
2023/04/07 06:55:21;;;;;;;;;;;;;;;9.16;71.85;96409.28;5019584;28;19924;-70
2023/04/07 06:57:47;;;;;;;;;;;;;;;8.63;69.13;96412.66;5024161;28;19917;-69
2023/04/07 07:00:12;;;;;;;;;;;;;;;8.42;66.98;96413.78;5021199;28;19918;-68
2023/04/07 07:02:37;;;;;;;;;;;;;;;8.61;70.14;96414.94;5025744;28;19922;-68
2023/04/07 07:05:03;;;;;;;;;;;;;;;9.14;68.33;96411.59;5021897;28;19917;-71
2023/04/07 07:07:29;;;;;;;;;;;;;;;9.62;65.55;96400.28;5015893;28;19980;-69
2023/04/07 07:09:54;;;;;;;;;;;;;;;10.06;59.04;96408.72;5006438;28;19921;-70
2023/04/07 07:12:20;;;;;;;;;;;;;;;8.99;61.94;96402.38;5011262;28;19921;-70
2023/04/07 07:14:45;;;;;;;;;;;;;;;8.22;67.43;96412.19;5005790;28;19917;-70
2023/04/07 07:17:10;;;;;;;;;;;;;;;8.97;64.51;96402.75;4999868;28;20007;-69
2023/04/07 07:19:36;;;;;;;;;;;;;;;9.68;61.09;96402.31;5005208;28;19952;-70
2023/04/07 07:22:03;;;;;;;;;;;;;;;8.88;63.93;96404.13;5023957;28;19921;-70
2023/04/07 07:24:28;;;;;;;;;;;;;;;8.79;64.76;96407.09;5012954;28;19924;-70
2023/04/07 07:26:53;;;;;;;;;;;;;;;8.79;64.50;96410.63;5004449;28;20329;-70
2023/04/07 07:29:19;;;;;;;;;;;;;;;9.28;62.69;96416.53;5012714;28;19917;-69
2023/04/07 07:31:44;;;;;;;;;;;;;;;10.00;59.37;96417.63;5023913;28;19921;-70
2023/04/07 07:34:09;;;;;;;;;;;;;;;10.38;57.60;96408.38;5019034;28;19925;-70
2023/04/07 07:36:35;;;;;;;;;;;;;;;10.51;58.13;96417.94;5025010;28;19920;-70
2023/04/07 07:39:00;;;;;;;;;;;;;;;11.08;56.59;96400.53;5024817;28;19936;-70
2023/04/07 07:41:26;;;;;;;;;;;;;;;10.87;57.45;96401.09;5017671;28;19925;-71
2023/04/07 07:43:51;;;;;;;;;;;;;;;10.04;58.67;96400.09;5023526;28;20417;-70
2023/04/07 07:46:17;;;;;;;;;;;;;;;10.30;56.79;96399.28;5016700;28;20362;-69
2023/04/07 07:48:42;;;;;;;;;;;;;;;10.24;59.04;96405.44;5024373;28;19924;-68
2023/04/07 07:51:07;;;;;;;;;;;;;;;10.85;55.20;96404.22;5018779;28;19939;-70
2023/04/07 07:53:32;;;;;;;;;;;;;;;11.40;52.88;96403.56;5031795;28;19970;-71
2023/04/07 07:55:58;;;;;;;;;;;;;;;11.80;52.69;96407.38;5030178;28;20358;-67
2023/04/07 07:58:23;;;;;;;;;;;;;;;13.27;49.27;96403.66;5020770;28;20535;-69
2023/04/07 08:00:49;;;;;;;;;;;;;;;14.37;44.74;96396.50;5026633;28;19925;-70
2023/04/07 08:03:15;;;;;;;;;;;;;;;14.72;43.56;96405.84;5037177;28;19989;-69
2023/04/07 08:05:41;;;;;;;;;;;;;;;14.93;43.10;96398.63;5036342;28;20435;-70
2023/04/07 08:08:07;;;;;;;;;;;;;;;16.62;39.38;96404.28;5029939;28;19917;-69
2023/04/07 08:10:32;;;;;;;;;;;;;;;18.53;36.54;96404.09;5023885;28;20552;-69
2023/04/07 08:12:57;;;;;;;;;;;;;;;15.11;37.38;96402.09;5022161;28;20000;-69
2023/04/07 08:15:23;;;;;;;;;;;;;;;17.81;34.36;96405.38;5016708;28;20082;-70
2023/04/07 08:17:48;;;;;;;;;;;;;;;17.61;34.81;96407.25;5023396;28;19921;-69
2023/04/07 08:20:13;;;;;;;;;;;;;;;18.48;33.72;96405.34;5017722;28;19917;-68
2023/04/07 08:22:39;;;;;;;;;;;;;;;17.74;34.91;96408.25;5023569;28;20008;-69
2023/04/07 08:25:04;;;;;;;;;;;;;;;17.79;34.38;96410.53;5018706;28;20487;-70
2023/04/07 08:27:29;;;;;;;;;;;;;;;17.88;34.88;96410.00;5022810;28;19924;-69
2023/04/07 08:29:59;;;;;;;;;;;;;;;17.33;34.87;96412.81;5022772;28;19921;-69
2023/04/07 08:32:24;;;;;;;;;;;;;;;16.38;36.86;96411.66;5016812;28;20182;-69
2023/04/07 08:34:50;;;;;;;;;;;;;;;16.50;37.49;96410.34;5023349;28;19917;-71
2023/04/07 08:37:15;;;;;;;;;;;;;;;16.21;38.06;96415.41;5017326;28;20012;-69
2023/04/07 08:39:40;;;;;;;;;;;;;;;16.00;38.25;96417.16;5020977;28;19928;-69
2023/04/07 08:42:07;;;;;;;;;;;;;;;16.35;38.54;96406.97;5019899;28;19928;-69
2023/04/07 08:44:35;;;;;;;;;;;;;;;16.05;38.75;96411.22;5019710;28;19975;-70
2023/04/07 08:47:02;;;;;;;;;;;;;;;17.00;37.03;96415.28;5002707;28;20418;-70
2023/04/07 08:49:31;;;;;;;;;;;;;;;16.47;38.01;96413.16;5009068;28;19952;-71
2023/04/07 08:51:58;;;;;;;;;;;;;;;17.31;36.99;96415.25;4997010;28;19921;-71
2023/04/07 08:54:24;;;;;;;;;;;;;;;16.82;37.61;96409.16;5017735;28;20004;-70
2023/04/07 08:56:49;;;;;;;;;;;;;;;17.46;35.88;96413.03;5023359;28;20023;-70
2023/04/07 08:59:17;;;;;;;;;;;;;;;16.55;38.86;96414.66;5000766;28;19921;-69
2023/04/07 09:01:42;;;;;;;;;;;;;;;17.05;38.29;96411.28;5022451;28;19932;-71
2023/04/07 09:04:08;;;;;;;;;;;;;;;17.48;36.98;96413.38;5019184;28;19917;-70
2023/04/07 09:06:34;;;;;;;;;;;;;;;16.48;38.02;96404.44;5021327;28;20366;-70
2023/04/07 09:09:04;;;;;;;;;;;;;;;16.08;39.34;96409.63;5021906;28;19917;-70
2023/04/07 09:11:34;;;;;;;;;;;;;;;16.29;39.11;96410.59;5004397;28;19917;-71
2023/04/07 09:14:00;;;;;;;;;;;;;;;16.62;38.60;96406.25;5013589;28;19937;-71
2023/04/07 09:16:27;;;;;;;;;;;;;;;16.51;38.89;96400.88;5000271;28;19921;-69
2023/04/07 09:18:52;;;;;;;;;;;;;;;16.00;39.82;96403.34;4983777;28;20008;-68
2023/04/07 09:21:18;;;;;;;;;;;;;;;15.86;40.60;96407.06;4998978;28;20016;-70
2023/04/07 09:23:43;;;;;;;;;;;;;;;15.84;40.04;96403.91;5003214;28;19918;-70
2023/04/07 09:26:26;;;;;;;;;;;;;;;15.81;40.27;96401.16;4997818;28;19952;-68
2023/04/07 09:28:57;;;;;;;;;;;;;;;15.86;40.09;96401.53;5003152;28;20008;-69
2023/04/07 09:31:25;;;;;;;;;;;;;;;15.61;41.31;96400.91;4997423;28;20712;-71
2023/04/07 09:33:51;;;;;;;;;;;;;;;15.19;41.90;96398.06;5002905;28;19930;-70
2023/04/07 09:36:17;;;;;;;;;;;;;;;15.20;42.18;96393.38;4998232;28;19922;-70
2023/04/07 09:38:43;;;;;;;;;;;;;;;15.32;41.49;96389.31;5002365;28;20005;-71
2023/04/07 09:41:09;;;;;;;;;;;;;;;15.30;41.91;96392.47;4996923;28;19925;-69
2023/04/07 09:43:44;;;;;;;;;;;;;;;14.82;42.60;96393.16;5004652;28;19925;-70
2023/04/07 09:46:14;;;;;;;;;;;;;;;14.66;42.81;96399.19;5016886;28;19917;-69
2023/04/07 09:48:40;;;;;;;;;;;;;;;14.68;42.79;96403.09;5021770;28;20350;-69
2023/04/07 09:51:09;;;;;;;;;;;;;;;14.18;43.17;96397.72;5017120;28;19925;-70
2023/04/07 09:53:46;;;;;;;;;;;;;;;13.45;44.33;96406.47;5020382;28;20011;-70
2023/04/07 09:56:12;;;;;;;;;;;;;;;13.96;44.29;96400.53;5014724;28;19979;-68
2023/04/07 09:58:41;;;;;;;;;;;;;;;14.20;43.34;96406.38;5022345;28;20353;-70
2023/04/07 10:01:08;;;;;;;;;;;;;;;14.08;44.20;96401.28;5018140;28;20397;-69
2023/04/07 10:03:33;;;;;;;;;;;;;;;13.53;45.28;96411.56;5022296;28;20054;-69
2023/04/07 10:05:59;;;;;;;;;;;;;;;12.32;48.04;96410.09;5021863;28;20008;-68
2023/04/07 10:08:25;;;;;;;;;;;;;;;11.92;49.63;96395.34;5018416;28;20208;-69
2023/04/07 10:10:51;;;;;;;;;;;;;;;11.64;50.46;96410.41;5022988;28;20213;-70
2023/04/07 10:13:17;;;;;;;;;;;;;;;11.76;50.75;96397.56;5000263;28;19924;-69
2023/04/07 10:15:42;;;;;;;;;;;;;;;11.73;50.71;96399.09;5019610;28;19926;-71
2023/04/07 10:18:08;;;;;;;;;;;;;;;11.66;51.97;96401.81;5027250;28;20293;-70
2023/04/07 10:20:34;;;;;;;;;;;;;;;11.69;52.72;96408.50;5036576;28;20123;-68
2023/04/07 10:23:12;;;;;;;;;;;;;;;11.60;52.82;96398.63;5027500;28;20015;-69
2023/04/07 10:25:38;;;;;;;;;;;;;;;11.59;53.23;96402.53;5032586;28;19944;-69
2023/04/07 10:28:06;;;;;;;;;;;;;;;11.65;53.29;96403.75;5032395;28;20429;-70
2023/04/07 10:30:32;;;;;;;;;;;;;;;11.67;53.55;96406.91;5034062;28;20463;-70
2023/04/07 10:32:58;;;;;;;;;;;;;;;11.75;53.54;96399.50;5031247;28;19921;-70
2023/04/07 10:35:24;;;;;;;;;;;;;;;11.96;53.30;96407.13;5028000;28;20142;-70
2023/04/07 10:38:12;;;;;;;;;;;;;;;12.24;52.02;96406.53;5031718;28;19936;-71
2023/04/07 10:40:38;;;;;;;;;;;;;;;12.27;51.66;96404.94;5015853;28;19951;-71
2023/04/07 10:43:03;;;;;;;;;;;;;;;12.28;51.53;96412.03;5045613;28;19909;-71
2023/04/07 10:45:47;;;;;;;;;;;;;;;12.14;51.98;96407.25;5044639;28;19997;-68
2023/04/07 10:48:13;;;;;;;;;;;;;;;11.99;51.94;96411.88;5021157;28;20351;-70
2023/04/07 10:50:39;;;;;;;;;;;;;;;12.10;51.70;96417.41;5008889;28;19917;-69
2023/04/07 10:53:08;;;;;;;;;;;;;;;12.20;52.04;96405.69;5029639;28;19962;-71
2023/04/07 10:55:34;;;;;;;;;;;;;;;12.24;52.20;96414.75;5031173;28;19917;-70
2023/04/07 10:58:17;;;;;;;;;;;;;;;12.57;50.53;96415.69;5025360;28;20019;-70
2023/04/07 11:01:02;;;;;;;;;;;;;;;12.30;51.40;96411.63;5026992;28;20478;-69
2023/04/07 11:03:28;;;;;;;;;;;;;;;12.14;51.88;96407.25;5030954;28;20329;-69
2023/04/07 11:06:03;;;;;;;;;;;;;;;11.71;52.66;96406.94;5035627;28;19918;-70
2023/04/07 11:08:42;;;;;;;;;;;;;;;11.88;53.38;96404.69;5006338;28;19944;-69
2023/04/07 11:11:09;;;;;;;;;;;;;;;11.74;54.70;96408.13;5019549;28;20358;-71
2023/04/07 11:13:45;;;;;;;;;;;;;;;11.84;54.30;96405.44;5020451;28;19922;-69
2023/04/07 11:16:11;;;;;;;;;;;;;;;12.30;53.11;96417.91;5000728;28;19918;-70
2023/04/07 11:18:37;;;;;;;;;;;;;;;12.65;52.23;96419.22;5005228;28;20379;-70
2023/04/07 11:21:04;;;;;;;;;;;;;;;12.47;52.95;96413.66;5003594;28;20008;-69
2023/04/07 11:23:36;;;;;;;;;;;;;;;12.21;53.12;96412.00;5004904;28;19918;-69
2023/04/07 11:26:01;;;;;;;;;;;;;;;12.53;53.16;96414.88;4985963;28;20374;-72
2023/04/07 11:28:27;;;;;;;;;;;;;;;12.63;52.92;96419.63;5004305;28;19925;-69
2023/04/07 11:30:53;;;;;;;;;;;;;;;12.89;51.63;96419.69;4988034;28;19922;-69
2023/04/07 11:33:20;;;;;;;;;;;;;;;13.07;51.79;96420.56;4999855;28;19945;-69
2023/04/07 11:35:50;;;;;;;;;;;;;;;13.62;49.38;96424.16;5002481;28;19917;-69
2023/04/07 11:38:15;;;;;;;;;;;;;;;13.49;49.50;96412.78;4981532;28;19917;-70
2023/04/07 11:40:41;;;;;;;;;;;;;;;13.20;50.49;96420.97;5001782;28;19985;-69
2023/04/07 11:43:36;;;;;;;;;;;;;;;13.25;49.63;96420.56;5000713;28;20514;-69
2023/04/07 11:46:02;;;;;;;;;;;;;;;13.27;49.05;96426.47;5004599;28;19924;-70
2023/04/07 11:48:29;;;;;;;;;;;;;;;13.63;48.45;96420.22;5003425;28;19994;-70
2023/04/07 11:50:54;;;;;;;;;;;;;;;13.99;48.18;96417.44;5008672;28;19925;-70
2023/04/07 11:53:26;;;;;;;;;;;;;;;14.09;46.91;96428.44;5013687;28;19998;-69
2023/04/07 11:55:58;;;;;;;;;;;;;;;14.23;46.11;96422.13;5006230;28;20582;-70
2023/04/07 11:58:23;;;;;;;;;;;;;;;13.99;46.99;96417.44;5017901;28;20647;-69
2023/04/07 12:00:55;;;;;;;;;;;;;;;14.32;46.67;96430.75;5005794;28;19921;-69
2023/04/07 12:03:21;;;;;;;;;;;;;;;14.12;45.77;96426.88;5017430;28;19948;-70
2023/04/07 12:05:46;;;;;;;;;;;;;;;14.71;45.52;96427.09;5024305;28;19918;-69
2023/04/07 12:08:13;;;;;;;;;;;;;;;14.39;45.48;96418.94;5018898;28;19961;-69
2023/04/07 12:10:40;;;;;;;;;;;;;;;14.73;44.68;96421.19;5022042;28;19970;-69
2023/04/07 12:13:06;;;;;;;;;;;;;;;14.48;44.27;96433.06;5017542;28;19967;-70
2023/04/07 12:15:31;;;;;;;;;;;;;;;14.23;44.30;96430.38;5014817;28;19979;-70
2023/04/07 12:17:56;;;;;;;;;;;;;;;14.11;44.81;96430.78;5004272;28;19921;-70
2023/04/07 12:20:21;;;;;;;;;;;;;;;14.53;44.32;96434.59;4998126;28;20047;-68
2023/04/07 12:22:47;;;;;;;;;;;;;;;13.67;45.14;96430.06;5002649;28;19928;-69
2023/04/07 12:25:12;;;;;;;;;;;;;;;13.81;45.24;96426.53;4999729;28;20063;-68
2023/04/07 12:27:37;;;;;;;;;;;;;;;14.04;44.87;96420.56;5003407;28;19925;-67
2023/04/07 12:30:03;;;;;;;;;;;;;;;13.95;45.72;96421.00;5001134;28;19918;-70
2023/04/07 12:32:28;;;;;;;;;;;;;;;13.84;44.42;96428.47;5000659;28;19918;-69
2023/04/07 12:34:54;;;;;;;;;;;;;;;13.80;45.40;96427.69;5002331;28;19918;-68
2023/04/07 12:37:19;;;;;;;;;;;;;;;13.80;44.75;96424.94;4999183;28;19917;-69
2023/04/07 12:39:44;;;;;;;;;;;;;;;14.36;44.97;96430.75;5005190;28;19968;-69
2023/04/07 12:42:10;;;;;;;;;;;;;;;14.32;43.68;96433.50;4999931;28;19976;-69
2023/04/07 12:44:36;;;;;;;;;;;;;;;14.47;44.04;96428.72;5015744;28;19972;-69